Time,TemperatureF,DewpointF,PressureIn,WindDirection,WindDirectionDegrees,WindSpeedMPH,WindSpeedGustMPH,Humidity,HourlyPrecipIn,Conditions,Clouds,dailyrainin,SolarRadiationWatts/m^2,SoftwareType,DateUTC
2013-02-08 00:01:00,35.0,23.0,-100.00,SSW,210,17.0,26.0,60,0.00,,,0.00,0.000000,,2013-02-08 08:01:00,
2013-02-08 00:11:00,35.0,23.0,-100.00,SSW,210,17.0,26.0,60,0.00,,,0.00,0.000000,,2013-02-08 08:11:00,
2013-02-08 00:21:00,35.0,23.0,-100.00,SSW,210,17.0,26.0,60,0.00,,,0.00,0.000000,,2013-02-08 08:21:00,
2013-02-08 00:52:00,34.0,26.0,-100.00,SW,216,20.0,29.0,72,0.00,,,0.00,0.000000,,2013-02-08 08:52:00,
2013-02-08 01:02:00,34.0,26.0,-100.00,SW,216,20.0,29.0,72,0.00,,,0.00,0.000000,,2013-02-08 09:02:00,
2013-02-08 01:11:00,34.0,26.0,-100.00,SW,216,20.0,29.0,72,0.00,,,0.00,0.000000,,2013-02-08 09:11:00,
2013-02-08 01:21:00,34.0,26.0,-100.00,SW,216,20.0,29.0,72,0.00,,,0.00,0.000000,,2013-02-08 09:21:00,
2013-02-08 01:52:00,32.0,27.0,-100.00,SSW,209,21.0,33.0,80,0.00,,,0.00,0.000000,,2013-02-08 09:52:00,
2013-02-08 02:01:00,32.0,27.0,-100.00,SSW,209,21.0,33.0,80,0.00,,,0.00,0.000000,,2013-02-08 10:01:00,
2013-02-08 02:11:00,32.0,27.0,-100.00,SSW,209,21.0,33.0,80,0.00,,,0.00,0.000000,,2013-02-08 10:11:00,
2013-02-08 02:22:00,32.0,27.0,-100.00,SSW,209,21.0,33.0,80,0.00,,,0.00,0.000000,,2013-02-08 10:22:00,
2013-02-08 02:52:00,34.0,27.0,-100.00,SSW,203,17.0,28.0,74,0.00,,,0.00,0.000000,,2013-02-08 10:52:00,
2013-02-08 03:01:00,34.0,27.0,-100.00,SSW,203,17.0,28.0,74,0.00,,,0.00,0.000000,,2013-02-08 11:01:00,
2013-02-08 03:11:00,34.0,27.0,-100.00,SSW,203,17.0,28.0,74,0.00,,,0.00,0.000000,,2013-02-08 11:11:00,
2013-02-08 03:21:00,34.0,27.0,-100.00,SSW,203,17.0,28.0,74,0.00,,,0.00,0.000000,,2013-02-08 11:21:00,
2013-02-08 03:52:00,33.0,26.0,-100.00,SSW,206,22.0,32.0,74,0.00,,,0.00,0.000000,,2013-02-08 11:52:00,
2013-02-08 04:01:00,33.0,26.0,-100.00,SSW,206,22.0,32.0,74,0.00,,,0.00,0.000000,,2013-02-08 12:01:00,
2013-02-08 04:11:00,33.0,26.0,-100.00,SSW,206,22.0,32.0,74,0.00,,,0.00,0.000000,,2013-02-08 12:11:00,
2013-02-08 04:22:00,33.0,26.0,-100.00,SSW,206,22.0,32.0,74,0.00,,,0.00,0.000000,,2013-02-08 12:22:00,
2013-02-08 04:52:00,31.0,27.0,-100.00,SW,221,21.0,34.0,84,0.00,,,0.00,0.000000,,2013-02-08 12:52:00,
2013-02-08 05:01:00,31.0,27.0,-100.00,SW,221,21.0,34.0,84,0.00,,,0.00,0.000000,,2013-02-08 13:01:00,
2013-02-08 05:11:00,31.0,27.0,-100.00,SW,221,21.0,34.0,84,0.00,,,0.00,0.000000,,2013-02-08 13:11:00,
2013-02-08 05:21:00,31.0,27.0,-100.00,SW,221,21.0,34.0,84,0.00,,,0.00,0.000000,,2013-02-08 13:21:00,
2013-02-08 05:52:00,32.0,24.0,-100.00,SW,233,14.0,31.0,71,0.00,,,0.00,0.000000,,2013-02-08 13:52:00,
2013-02-08 06:02:00,32.0,24.0,-100.00,SW,233,14.0,31.0,71,0.00,,,0.00,0.000000,,2013-02-08 14:02:00,
2013-02-08 06:11:00,32.0,24.0,-100.00,SW,233,14.0,31.0,71,0.00,,,0.00,0.000000,,2013-02-08 14:11:00,
2013-02-08 06:21:00,32.0,24.0,-100.00,SW,233,14.0,31.0,71,0.00,,,0.00,0.000000,,2013-02-08 14:21:00,
2013-02-08 06:52:00,32.0,21.0,-100.00,SW,233,14.0,27.0,63,0.00,,,0.00,0.000000,,2013-02-08 14:52:00,
2013-02-08 07:02:00,32.0,21.0,-100.00,SW,233,14.0,27.0,63,0.00,,,0.00,0.000000,,2013-02-08 15:02:00,
2013-02-08 07:11:00,32.0,21.0,-100.00,SW,233,14.0,27.0,63,0.00,,,0.00,0.000000,,2013-02-08 15:11:00,
2013-02-08 07:21:00,32.0,21.0,-100.00,SW,233,14.0,27.0,63,0.00,,,0.00,0.000000,,2013-02-08 15:21:00,
2013-02-08 07:52:00,33.0,21.0,-100.00,SSW,210,12.0,29.0,62,0.00,,,0.00,28.000000,,2013-02-08 15:52:00,
2013-02-08 08:01:00,33.0,21.0,-100.00,SSW,210,12.0,29.0,62,0.00,,,0.00,28.000000,,2013-02-08 16:01:00,
2013-02-08 08:11:00,33.0,21.0,-100.00,SSW,210,12.0,29.0,62,0.00,,,0.00,28.000000,,2013-02-08 16:11:00,
2013-02-08 08:21:00,33.0,21.0,-100.00,SSW,210,12.0,29.0,62,0.00,,,0.00,28.000000,,2013-02-08 16:21:00,
2013-02-08 08:52:00,33.0,25.0,-100.00,SSW,212,21.0,28.0,73,0.00,,,0.00,216.000000,,2013-02-08 16:52:00,
2013-02-08 09:03:00,33.0,25.0,-100.00,SSW,212,21.0,28.0,73,0.00,,,0.00,216.000000,,2013-02-08 17:03:00,
2013-02-08 09:11:00,33.0,25.0,-100.00,SSW,212,21.0,28.0,73,0.00,,,0.00,216.000000,,2013-02-08 17:11:00,
2013-02-08 09:21:00,33.0,25.0,-100.00,SSW,212,21.0,28.0,73,0.00,,,0.00,216.000000,,2013-02-08 17:21:00,
2013-02-08 09:52:00,34.0,23.0,-100.00,SW,220,20.0,29.0,65,0.00,,,0.00,438.000000,,2013-02-08 17:52:00,
2013-02-08 10:01:00,34.0,23.0,-100.00,SW,220,20.0,29.0,65,0.00,,,0.00,438.000000,,2013-02-08 18:01:00,
2013-02-08 10:11:00,34.0,23.0,-100.00,SW,220,20.0,29.0,65,0.00,,,0.00,438.000000,,2013-02-08 18:11:00,
2013-02-08 10:23:00,34.0,23.0,-100.00,SW,220,20.0,29.0,65,0.00,,,0.00,438.000000,,2013-02-08 18:23:00,
2013-02-08 10:52:00,37.0,23.0,-100.00,SW,217,19.0,32.0,57,0.00,,,0.00,699.000000,,2013-02-08 18:52:00,
2013-02-08 11:01:00,37.0,23.0,-100.00,SW,217,19.0,32.0,57,0.00,,,0.00,699.000000,,2013-02-08 19:01:00,
2013-02-08 11:11:00,37.0,23.0,-100.00,SW,217,19.0,32.0,57,0.00,,,0.00,699.000000,,2013-02-08 19:11:00,
2013-02-08 11:22:00,37.0,23.0,-100.00,SW,217,19.0,32.0,57,0.00,,,0.00,699.000000,,2013-02-08 19:22:00,
2013-02-08 11:52:00,38.0,24.0,-100.00,SW,214,13.0,26.0,56,0.00,,,0.00,533.000000,,2013-02-08 19:52:00,
2013-02-08 12:01:00,38.0,24.0,-100.00,SW,214,13.0,26.0,56,0.00,,,0.00,533.000000,,2013-02-08 20:01:00,
2013-02-08 12:11:00,38.0,24.0,-100.00,SW,214,13.0,26.0,56,0.00,,,0.00,533.000000,,2013-02-08 20:11:00,
2013-02-08 12:21:00,38.0,24.0,-100.00,SW,214,13.0,26.0,56,0.00,,,0.00,533.000000,,2013-02-08 20:21:00,
2013-02-08 12:52:00,39.0,20.0,-100.00,SW,219,14.0,29.0,46,0.00,,,0.00,747.000000,,2013-02-08 20:52:00,
2013-02-08 13:01:00,39.0,20.0,-100.00,SW,219,14.0,29.0,46,0.00,,,0.00,747.000000,,2013-02-08 21:01:00,
2013-02-08 13:11:00,39.0,20.0,-100.00,SW,219,14.0,29.0,46,0.00,,,0.00,747.000000,,2013-02-08 21:11:00,
2013-02-08 13:21:00,39.0,20.0,-100.00,SW,219,14.0,29.0,46,0.00,,,0.00,747.000000,,2013-02-08 21:21:00,
2013-02-08 13:52:00,39.0,19.0,-100.00,SW,229,12.0,24.0,44,0.00,,,0.00,533.000000,,2013-02-08 21:52:00,
2013-02-08 14:01:00,39.0,19.0,-100.00,SW,229,12.0,24.0,44,0.00,,,0.00,533.000000,,2013-02-08 22:01:00,
2013-02-08 14:11:00,39.0,19.0,-100.00,SW,229,12.0,24.0,44,0.00,,,0.00,533.000000,,2013-02-08 22:11:00,
2013-02-08 14:21:00,39.0,19.0,-100.00,SW,229,12.0,24.0,44,0.00,,,0.00,533.000000,,2013-02-08 22:21:00,
2013-02-08 14:52:00,40.0,19.0,-100.00,SW,227,16.0,28.0,42,0.00,,,0.00,494.000000,,2013-02-08 22:52:00,
2013-02-08 15:01:00,40.0,19.0,-100.00,SW,227,16.0,28.0,42,0.00,,,0.00,494.000000,,2013-02-08 23:01:00,
2013-02-08 15:11:00,40.0,19.0,-100.00,SW,227,16.0,28.0,42,0.00,,,0.00,494.000000,,2013-02-08 23:11:00,
2013-02-08 15:21:00,40.0,19.0,-100.00,SW,227,16.0,28.0,42,0.00,,,0.00,494.000000,,2013-02-08 23:21:00,
2013-02-08 15:52:00,38.0,17.0,-100.00,SSW,206,18.0,26.0,42,0.00,,,0.00,439.000000,,2013-02-08 23:52:00,
2013-02-08 16:01:00,38.0,17.0,-100.00,SSW,206,18.0,26.0,42,0.00,,,0.00,439.000000,,2013-02-09 00:01:00,
2013-02-08 16:11:00,38.0,17.0,-100.00,SSW,206,18.0,26.0,42,0.00,,,0.00,439.000000,,2013-02-09 00:11:00,
2013-02-08 16:21:00,38.0,17.0,-100.00,SSW,206,18.0,26.0,42,0.00,,,0.00,439.000000,,2013-02-09 00:21:00,
2013-02-08 16:52:00,39.0,18.0,-100.00,SSW,202,15.0,25.0,43,0.00,,,0.00,330.000000,,2013-02-09 00:52:00,
2013-02-08 17:01:00,39.0,18.0,-100.00,SSW,202,15.0,25.0,43,0.00,,,0.00,330.000000,,2013-02-09 01:01:00,
2013-02-08 17:11:00,39.0,18.0,-100.00,SSW,202,15.0,25.0,43,0.00,,,0.00,330.000000,,2013-02-09 01:11:00,
2013-02-08 17:21:00,39.0,18.0,-100.00,SSW,202,15.0,25.0,43,0.00,,,0.00,330.000000,,2013-02-09 01:21:00,
2013-02-08 17:52:00,36.0,20.0,-100.00,SW,215,13.0,23.0,52,0.00,,,0.00,213.000000,,2013-02-09 01:52:00,
2013-02-08 18:01:00,36.0,20.0,-100.00,SW,215,13.0,23.0,52,0.00,,,0.00,213.000000,,2013-02-09 02:01:00,
2013-02-08 18:11:00,36.0,20.0,-100.00,SW,215,13.0,23.0,52,0.00,,,0.00,213.000000,,2013-02-09 02:11:00,
2013-02-08 18:21:00,36.0,20.0,-100.00,SW,215,13.0,23.0,52,0.00,,,0.00,213.000000,,2013-02-09 02:21:00,
2013-02-08 18:52:00,33.0,24.0,-100.00,SW,216,3.0,20.0,70,0.00,,,0.00,0.000000,,2013-02-09 02:52:00,
2013-02-08 19:01:00,33.0,24.0,-100.00,SW,216,3.0,20.0,70,0.00,,,0.00,0.000000,,2013-02-09 03:01:00,
2013-02-08 19:11:00,33.0,24.0,-100.00,SW,216,3.0,20.0,70,0.00,,,0.00,0.000000,,2013-02-09 03:11:00,
2013-02-08 19:21:00,33.0,24.0,-100.00,SW,216,3.0,20.0,70,0.00,,,0.00,0.000000,,2013-02-09 03:21:00,
2013-02-08 19:53:00,33.0,19.0,-100.00,WNW,296,2.0,12.0,55,0.00,,,0.00,0.000000,,2013-02-09 03:53:00,
2013-02-08 20:02:00,33.0,19.0,-100.00,WNW,296,2.0,12.0,55,0.00,,,0.00,0.000000,,2013-02-09 04:02:00,
2013-02-08 20:11:00,33.0,19.0,-100.00,WNW,296,2.0,12.0,55,0.00,,,0.00,0.000000,,2013-02-09 04:11:00,
2013-02-08 20:22:00,33.0,19.0,-100.00,WNW,296,2.0,12.0,55,0.00,,,0.00,0.000000,,2013-02-09 04:22:00,
2013-02-08 20:52:00,33.0,19.0,-100.00,West,271,7.0,12.0,57,0.00,,,0.00,0.000000,,2013-02-09 04:52:00,
2013-02-08 21:02:00,33.0,19.0,-100.00,West,271,7.0,12.0,57,0.00,,,0.00,0.000000,,2013-02-09 05:02:00,
2013-02-08 21:12:00,33.0,19.0,-100.00,West,271,7.0,12.0,57,0.00,,,0.00,0.000000,,2013-02-09 05:12:00,
2013-02-08 21:22:00,33.0,19.0,-100.00,West,271,7.0,12.0,57,0.00,,,0.00,0.000000,,2013-02-09 05:22:00,
2013-02-08 21:52:00,33.0,20.0,-100.00,NW,308,13.0,19.0,58,0.00,,,0.00,0.000000,,2013-02-09 05:52:00,
2013-02-08 22:01:00,33.0,20.0,-100.00,NW,308,13.0,19.0,58,0.00,,,0.00,0.000000,,2013-02-09 06:01:00,
2013-02-08 22:11:00,33.0,20.0,-100.00,NW,308,13.0,19.0,58,0.00,,,0.00,0.000000,,2013-02-09 06:11:00,
2013-02-08 22:21:00,33.0,20.0,-100.00,NW,308,13.0,19.0,58,0.00,,,0.00,0.000000,,2013-02-09 06:21:00,
2013-02-08 22:52:00,32.0,19.0,-100.00,NW,309,15.0,21.0,57,0.00,,,0.00,0.000000,,2013-02-09 06:52:00,
2013-02-08 23:01:00,32.0,19.0,-100.00,NW,309,15.0,21.0,57,0.00,,,0.00,0.000000,,2013-02-09 07:01:00,
2013-02-08 23:11:00,32.0,19.0,-100.00,NW,309,15.0,21.0,57,0.00,,,0.00,0.000000,,2013-02-09 07:11:00,
2013-02-08 23:21:00,32.0,19.0,-100.00,NW,309,15.0,21.0,57,0.00,,,0.00,0.000000,,2013-02-09 07:21:00,
2013-02-08 23:52:00,32.0,18.0,-100.00,WNW,300,13.0,25.0,56,0.00,,,0.00,0.000000,,2013-02-09 07:52:00,